ADDS METAR Data INFO
IDs: Format: Raw Decoded Include TAF

Data at: 0931 UTC 11 Dec 2017

KFZY 110927Z AUTO 29005KT 1SM -SN BR BKN008 BKN012 OVC019 M02/M04 A2991 RMK AO2 CIG 005V009 P0001 T10221039
KFZY 110921Z AUTO 28006KT 1 1/2SM -SN BR SCT008 BKN012 OVC037 M02/M04 A2991 RMK AO2 P0000 T10221039
KFZY 110916Z AUTO 27006KT 2SM -SN BR FEW008 BKN019 OVC035 M02/M04 A2991 RMK AO2 P0000 T10221039
KFZY 110906Z AUTO 26007KT 3SM -SN BR FEW020 BKN026 OVC035 M02/M04 A2990 RMK AO2 P0000 T10221044
KFZY 110854Z AUTO 24004KT 2 1/2SM -SN BR FEW024 SCT030 OVC035 M02/M04 A2990 RMK AO2 SLP132 P0000 60000 T10221039 51010
KFZY 110834Z AUTO 26005KT 2 1/2SM -SN BR FEW018 BKN026 OVC030 M02/M04 A2990 RMK AO2 P0000 T10221039
KFZY 110805Z AUTO 26007KT 1 1/2SM -SN BKN025 BKN029 OVC038 M02/M04 A2990 RMK AO2 P0000 T10171044
KFZY 110754Z AUTO 25009KT 2SM -SN BKN028 OVC036 M02/M05 A2990 RMK AO2 SNB23 SLP129 P0000 T10171050
KFZY 110745Z AUTO 25009KT 2 1/2SM -SN BKN028 OVC038 M02/M05 A2989 RMK AO2 SNB23 P0000 T10171050
KFZY 110654Z AUTO 23011KT 10SM OVC070 M01/M06 A2987 RMK AO2 SLP121 T10111061
KFZY 110554Z AUTO 23011KT 10SM OVC070 M01/M06 A2987 RMK AO2 SLP119 60000 T10111056 11011 21022 50001
KFZY 110454Z AUTO 23013G19KT 10SM OVC070 M01/M06 A2988 RMK AO2 SLP122 T10111056 400001033
KFZY 110354Z AUTO 23013KT 10SM BKN070 OVC085 M02/M05 A2988 RMK AO2 SNE03 SLP123 P0000 T10171050
KFZY 110254Z AUTO 22010KT 7SM -SN BKN047 OVC085 M02/M04 A2986 RMK AO2 SLP119 P0000 60000 T10171039 56001
KFZY 110154Z AUTO 22010G20KT 3SM -SN BKN035 OVC046 M02/M04 A2987 RMK AO2 SLP120 P0000 T10171044
KFZY 110054Z AUTO 21012G20KT 6SM -SN SCT049 OVC060 M02/M04 A2986 RMK AO2 SLP117 P0000 T10171044
KFZY 110028Z AUTO 20012KT 3SM -SN BR BKN033 OVC047 M02/M04 A2986 RMK AO2 P0000 T10171039
KFZY 110012Z AUTO 21009KT 2SM -SN BR OVC033 M02/M04 A2986 RMK AO2 P0000 T10171039
KFZY 102354Z AUTO 21010KT 3SM -SN BR FEW014 OVC037 M02/M04 A2987 RMK AO2 SLP120 P0000 60000 T10171039 10000 21022 51010
KFZY 102344Z AUTO 20010KT 2 1/2SM -SN BR FEW014 BKN033 OVC046 M02/M04 A2987 RMK AO2 P0000 T10221039
KFZY 102330Z AUTO 20009KT 2 1/2SM -SN BR FEW013 SCT019 OVC029 M02/M04 A2987 RMK AO2 P0000 T10221039
KFZY 102323Z AUTO 21010KT 2 1/2SM -SN BR FEW011 BKN031 OVC046 M02/M04 A2987 RMK AO2 P0000 T10221039
KFZY 102254Z AUTO 20010KT 5SM -SN BR OVC045 M02/M04 A2986 RMK AO2 SLP119 P0000 T10221044
KFZY 102154Z AUTO 22007KT 5SM -SN FEW028 OVC036 M02/M06 A2985 RMK AO2 SNB29 SLP115 P0000 T10171056
KFZY 102054Z AUTO 23011KT 10SM OVC050 M01/M07 A2984 RMK AO2 SLP109 60000 T10111067 53006
KFZY 101954Z AUTO 24011G19KT 10SM FEW035 BKN044 OVC060 M01/M08 A2983 RMK AO2 SNB22E32 SLP106 P0000 T10111078
KFZY 101854Z AUTO 25011G23KT 10SM BKN060 OVC070 00/M09 A2981 RMK AO2 SLP101 T00001089
KFZY 101754Z AUTO 26016G24KT 10SM FEW039 BKN070 OVC080 M01/M08 A2982 RMK AO2 SLP103 60005 T10061083 10000 21011 50000
KFZY 101654Z AUTO 24014G25KT 10SM FEW036 M01/M06 A2982 RMK AO2 PK WND 25026/1602 SLP104 T10061061
KFZY 101554Z AUTO 23015G22KT 9SM FEW060 SCT110 M01/M06 A2982 RMK AO2 UPB13E14SNE13 SLP104 P0000 T10061056
KFZY 101526Z AUTO 24013KT 10SM FEW012 SCT022 OVC065 M01/M04 A2982 RMK AO2 UPB13E14SNE13 P0000 T10061044
KFZY 101515Z AUTO 24010KT 8SM FEW012 BKN021 OVC065 M01/M03 A2982 RMK AO2 UPB13E14SNE13 P0000 T10061033
KFZY 101508Z AUTO 24007KT 3SM -SN BR BKN014 OVC024 M01/M03 A2982 RMK AO2 P0000 T10111028
KFZY 101505Z AUTO 24008KT 1 1/4SM -SN BR FEW007 BKN012 OVC018 M01/M03 A2982 RMK AO2 P0000 T10111028
KFZY 101454Z AUTO 24009G17KT M1/4SM +SN FZFG VV005 M01/M02 A2982 RMK AO2 SLP103 P0004 60005 T10111022 51022
KFZY 101429Z AUTO 23007KT 3/4SM -SN BR VV008 M01/M02 A2981 RMK AO2 P0001 T10111022
KFZY 101424Z AUTO 24008KT 1 1/4SM -SN BR BKN009 BKN012 OVC020 M01/M02 A2981 RMK AO2 P0001 T10111022
KFZY 101417Z AUTO 24008KT 1/4SM SN FZFG BKN009 OVC020 M01/M02 A2981 RMK AO2 P0001 T10111022
KFZY 101407Z AUTO 24009KT 1/4SM +SN FZFG BKN010 BKN020 OVC028 M01/M03 A2981 RMK AO2 P0001 T10111028
KFZY 101354Z AUTO 24013G19KT 3/4SM -SN BKN020 BKN029 OVC037 M01/M04 A2981 RMK AO2 VIS 1/4V2 SNB40 SLP099 P0001 T10111039
KFZY 101352Z AUTO 25014G19KT 1SM -SN BKN022 BKN029 OVC037 M01/M04 A2981 RMK AO2 VIS 1/2V2 SNB40 P0000
KFZY 101347Z AUTO 26010KT 2 1/2SM -SN BKN024 BKN031 OVC040 00/M05 A2980 RMK AO2 SNB40 P0000 T00001050
KFZY 101254Z AUTO 28010KT 10SM FEW033 BKN046 OVC060 00/M05 A2979 RMK AO2 SNE05 SLP092 P0000 T00001050
KFZY 101211Z AUTO 25007KT 5SM BR FEW009 SCT015 OVC035 M01/M03 A2977 RMK AO2 SNE05 P0000 T10111028
KFZY 101203Z AUTO 25008KT 4SM -SN BR FEW006 BKN009 OVC030 M01/M03 A2976 RMK AO2 P0000 T10111028
KFZY 101154Z AUTO 24011KT 2SM -SN BR SCT006 BKN009 OVC016 M01/M03 A2975 RMK AO2 SNB1058 SLP081 P0001 60006 70006 T10111028 11011 21022 53010
KFZY 101147Z AUTO 25011KT 1 1/4SM -SN BR BKN006 OVC016 M01/M03 A2975 RMK AO2 SNB1058 P0001 T10111028
KFZY 101136Z AUTO 26009KT 1/2SM SN FZFG VV007 M02/M03 A2975 RMK AO2 SNB1058 P0001 T10171028
KFZY 101124Z AUTO 24010KT 1/2SM SN FZFG VV011 M01/M03 A2974 RMK AO2 SNB1058 P0000 T10111028
KFZY 101112Z AUTO 24012KT 1SM -SN BR BKN020 OVC055 M01/M03 A2974 RMK AO2 SNB1058 P0000 T10111033
KFZY 101105Z AUTO 24011KT 2 1/2SM -SN BKN024 BKN060 OVC080 M01/M04 A2974 RMK AO2 VIS 1V5 SNB1058 P0000 T10111039
KFZY 101054Z AUTO 25010KT 8SM BKN060 OVC080 M01/M04 A2973 RMK AO2 SLP075 T10111039
KFZY 100954Z AUTO 23009KT 10SM FEW018 OVC065 M02/M05 A2972 RMK AO2 SNE31 SLP069 P0000 T10171050
KFZY 100939Z AUTO 22007KT 10SM FEW019 SCT028 OVC070 M02/M05 A2972 RMK AO2 SNE31 P0000 T10171050
KFZY 100920Z AUTO 23006KT 4SM -SN BKN028 BKN042 OVC055 M02/M05 A2972 RMK AO2 P0000 T10221050
KFZY 100904Z AUTO 23005KT 2 1/2SM -SN BR BKN018 OVC044 M02/M04 A2972 RMK AO2 P0000 T10221039
KFZY 100854Z AUTO 22006KT 1 1/4SM -SN BR OVC016 M02/M04 A2972 RMK AO2 SLP070 P0002 60005 T10221039 50003
KFZY 100843Z AUTO 23007KT 3/4SM -SN BR BKN012 OVC027 M02/M04 A2973 RMK AO2 P0001 T10221039
KFZY 100838Z AUTO 23006KT 1 1/4SM -SN BR BKN014 OVC027 M02/M04 A2973 RMK AO2 P0001 T10221039
KFZY 100829Z AUTO 24006KT 1 1/2SM -SN BR BKN016 OVC027 M02/M04 A2973 RMK AO2 P0001 T10221039
KFZY 100820Z AUTO 23005KT 2SM -SN BR SCT014 BKN026 OVC030 M02/M04 A2973 RMK AO2 P0001 T10221039
KFZY 100810Z AUTO 22005KT 1 1/4SM -SN BR BKN012 OVC026 M02/M04 A2973 RMK AO2 P0001 T10221039
KFZY 100754Z AUTO 24006KT 1/2SM SN FZFG BKN010 OVC024 M02/M04 A2973 RMK AO2 SNB09 SLP072 P0003 T10221039
KFZY 100743Z AUTO 24008KT 1SM -SN BR BKN014 OVC025 M02/M04 A2973 RMK AO2 SNB09 P0002 T10221044
KFZY 100726Z AUTO 23006KT 1 3/4SM -SN BKN024 OVC034 M02/M05 A2972 RMK AO2 SNB09 P0000 T10171050
KFZY 100717Z AUTO 25006KT 1 3/4SM -SN FEW024 BKN038 OVC050 M02/M06 A2972 RMK AO2 SNB09 P0000 T10171056
KFZY 100654Z AUTO 25006KT 10SM OVC065 M02/M07 A2972 RMK AO2 SLP067 T10171067
KFZY 100554Z AUTO 23005KT 10SM FEW036 BKN050 M02/M07 A2971 RMK AO2 SLP067 T10221067 11022 21056 58008
KFZY 100454Z AUTO 00000KT 10SM FEW045 OVC060 M03/M06 A2973 RMK AO2 SLP071 T10281061 400171056
KFZY 100354Z AUTO 00000KT 3SM BR SCT044 M04/M06 A2974 RMK AO2 SLP076 T10391061
KFZY 100351Z AUTO 00000KT 3SM BR SCT044 M04/M06 A2974 RMK AO2
KFZY 100340Z AUTO 00000KT 2 1/2SM BR SCT042 M04/M06 A2974 RMK AO2 T10391061
KFZY 100254Z AUTO 14003KT 8SM CLR M03/M07 A2974 RMK AO2 SLP078 T10281072 55006
KFZY 100154Z AUTO 00000KT 8SM CLR M04/M07 A2974 RMK AO2 SLP075 T10441072
KFZY 100054Z AUTO 00000KT 8SM CLR M05/M07 A2975 RMK AO2 SLP080 T10501072
KFZY 092354Z AUTO 00000KT 7SM CLR M03/M07 A2976 RMK AO2 SLP084 T10331072 10017 21033 50001
KFZY 092254Z AUTO 00000KT 10SM CLR M02/M07 A2977 RMK AO2 SLP085 T10171067
KFZY 092154Z AUTO 00000KT 10SM CLR M01/M07 A2976 RMK AO2 SLP084 T10061067